sensor_id;sensor_type;location;lat;lon;timestamp;pressure;altitude;pressure_sealevel;temperature;humidity
61908;BME280;47864;52.526;19.672;2023-02-12T00:01:08;102309.13;;;1.70;100.00
61908;BME280;47864;52.526;19.672;2023-02-12T00:03:10;102308.75;;;1.81;100.00
61908;BME280;47864;52.526;19.672;2023-02-12T00:05:12;102310.84;;;1.71;100.00
61908;BME280;47864;52.526;19.672;2023-02-12T00:07:14;102305.31;;;1.54;100.00
61908;BME280;47864;52.526;19.672;2023-02-12T00:09:15;102303.97;;;1.67;100.00
61908;BME280;47864;52.526;19.672;2023-02-12T00:11:19;102306.50;;;1.70;100.00
61908;BME280;47864;52.526;19.672;2023-02-12T00:13:22;102312.25;;;1.55;100.00
61908;BME280;47864;52.526;19.672;2023-02-12T00:15:23;102319.66;;;1.67;100.00
61908;BME280;47864;52.526;19.672;2023-02-12T00:17:25;102326.63;;;1.68;100.00
61908;BME280;47864;52.526;19.672;2023-02-12T00:19:26;102330.84;;;1.72;100.00
61908;BME280;47864;52.526;19.672;2023-02-12T00:21:28;102333.38;;;1.74;100.00
61908;BME280;47864;52.526;19.672;2023-02-12T00:23:29;102348.94;;;1.78;100.00
61908;BME280;47864;52.526;19.672;2023-02-12T00:25:32;102356.84;;;1.77;100.00
61908;BME280;47864;52.526;19.672;2023-02-12T00:27:34;102343.06;;;1.72;100.00
61908;BME280;47864;52.526;19.672;2023-02-12T00:29:36;102356.16;;;1.72;100.00
61908;BME280;47864;52.526;19.672;2023-02-12T00:31:37;102377.22;;;1.67;100.00
61908;BME280;47864;52.526;19.672;2023-02-12T00:33:39;102382.00;;;1.55;100.00
61908;BME280;47864;52.526;19.672;2023-02-12T00:35:41;102378.38;;;1.59;100.00
61908;BME280;47864;52.526;19.672;2023-02-12T00:37:42;102384.25;;;1.65;100.00
61908;BME280;47864;52.526;19.672;2023-02-12T00:39:44;102388.56;;;1.66;100.00
61908;BME280;47864;52.526;19.672;2023-02-12T00:41:45;102398.63;;;1.80;100.00
61908;BME280;47864;52.526;19.672;2023-02-12T00:43:48;102395.22;;;1.76;100.00
61908;BME280;47864;52.526;19.672;2023-02-12T00:45:49;102401.53;;;1.71;100.00
61908;BME280;47864;52.526;19.672;2023-02-12T00:47:51;102395.22;;;1.76;100.00
61908;BME280;47864;52.526;19.672;2023-02-12T00:49:52;102393.88;;;1.65;100.00
61908;BME280;47864;52.526;19.672;2023-02-12T00:51:54;102396.50;;;1.65;100.00
61908;BME280;47864;52.526;19.672;2023-02-12T00:53:55;102403.16;;;1.73;100.00
61908;BME280;47864;52.526;19.672;2023-02-12T00:55:57;102400.66;;;1.70;100.00
61908;BME280;47864;52.526;19.672;2023-02-12T00:57:59;102394.38;;;1.76;100.00
61908;BME280;47864;52.526;19.672;2023-02-12T01:00:00;102399.13;;;1.65;100.00
61908;BME280;47864;52.526;19.672;2023-02-12T01:02:02;102412.53;;;1.54;100.00
61908;BME280;47864;52.526;19.672;2023-02-12T01:04:04;102418.94;;;1.44;100.00
61908;BME280;47864;52.526;19.672;2023-02-12T01:06:05;102430.31;;;1.43;100.00
61908;BME280;47864;52.526;19.672;2023-02-12T01:08:13;102435.28;;;1.50;100.00
61908;BME280;47864;52.526;19.672;2023-02-12T01:10:16;102419.34;;;1.58;100.00
61908;BME280;47864;52.526;19.672;2023-02-12T01:12:17;102418.03;;;1.45;100.00
61908;BME280;47864;52.526;19.672;2023-02-12T01:14:18;102418.50;;;1.58;100.00
61908;BME280;47864;52.526;19.672;2023-02-12T01:16:22;102417.03;;;1.49;100.00
61908;BME280;47864;52.526;19.672;2023-02-12T01:18:24;102427.13;;;1.61;100.00
61908;BME280;47864;52.526;19.672;2023-02-12T01:20:25;102434.34;;;1.81;100.00
61908;BME280;47864;52.526;19.672;2023-02-12T01:22:27;102434.44;;;1.78;100.00
61908;BME280;47864;52.526;19.672;2023-02-12T01:24:28;102439.69;;;1.76;100.00
61908;BME280;47864;52.526;19.672;2023-02-12T01:26:31;102430.63;;;1.60;100.00
61908;BME280;47864;52.526;19.672;2023-02-12T01:28:32;102454.69;;;1.71;100.00
61908;BME280;47864;52.526;19.672;2023-02-12T01:30:34;102453.88;;;1.69;100.00
61908;BME280;47864;52.526;19.672;2023-02-12T01:32:35;102442.81;;;1.61;100.00
61908;BME280;47864;52.526;19.672;2023-02-12T01:34:37;102452.66;;;1.53;100.00
61908;BME280;47864;52.526;19.672;2023-02-12T01:36:38;102448.47;;;1.47;100.00
61908;BME280;47864;52.526;19.672;2023-02-12T01:38:40;102449.19;;;1.52;100.00
61908;BME280;47864;52.526;19.672;2023-02-12T01:40:41;102445.56;;;1.57;100.00
61908;BME280;47864;52.526;19.672;2023-02-12T01:42:43;102442.03;;;1.58;100.00
61908;BME280;47864;52.526;19.672;2023-02-12T01:47:16;102450.69;;;1.60;100.00
61908;BME280;47864;52.526;19.672;2023-02-12T01:51:22;102445.44;;;1.61;100.00
61908;BME280;47864;52.526;19.672;2023-02-12T01:53:28;102433.78;;;1.43;100.00
61908;BME280;47864;52.526;19.672;2023-02-12T01:55:31;102446.66;;;1.49;100.00
61908;BME280;47864;52.526;19.672;2023-02-12T01:57:36;102456.09;;;1.55;100.00
61908;BME280;47864;52.526;19.672;2023-02-12T01:59:40;102461.31;;;1.55;100.00
61908;BME280;47864;52.526;19.672;2023-02-12T02:01:43;102465.81;;;1.50;100.00
61908;BME280;47864;52.526;19.672;2023-02-12T02:03:49;102456.44;;;1.43;100.00
61908;BME280;47864;52.526;19.672;2023-02-12T02:07:59;102475.63;;;1.71;100.00
61908;BME280;47864;52.526;19.672;2023-02-12T02:10:01;102471.91;;;1.50;100.00
61908;BME280;47864;52.526;19.672;2023-02-12T02:12:03;102470.09;;;1.52;100.00
61908;BME280;47864;52.526;19.672;2023-02-12T02:14:04;102471.78;;;1.55;100.00
61908;BME280;47864;52.526;19.672;2023-02-12T02:16:19;102492.25;;;1.69;100.00
61908;BME280;47864;52.526;19.672;2023-02-12T02:18:34;102493.03;;;1.72;100.00
61908;BME280;47864;52.526;19.672;2023-02-12T02:28:24;102533.06;;;1.46;100.00
61908;BME280;47864;52.526;19.672;2023-02-12T02:33:14;102534.59;;;1.53;100.00
61908;BME280;47864;52.526;19.672;2023-02-12T02:35:39;102515.59;;;1.47;100.00
61908;BME280;47864;52.526;19.672;2023-02-12T02:37:55;102529.44;;;1.50;100.00
61908;BME280;47864;52.526;19.672;2023-02-12T02:42:29;102545.00;;;1.55;100.00
61908;BME280;47864;52.526;19.672;2023-02-12T02:44:52;102542.97;;;1.65;100.00
61908;BME280;47864;52.526;19.672;2023-02-12T02:46:55;102548.88;;;1.71;100.00
61908;BME280;47864;52.526;19.672;2023-02-12T02:49:10;102554.34;;;1.64;100.00
61908;BME280;47864;52.526;19.672;2023-02-12T02:51:23;102556.25;;;1.57;100.00
61908;BME280;47864;52.526;19.672;2023-02-12T02:53:33;102556.44;;;1.51;100.00
61908;BME280;47864;52.526;19.672;2023-02-12T02:55:38;102559.56;;;1.64;100.00
61908;BME280;47864;52.526;19.672;2023-02-12T02:57:55;102551.88;;;1.58;100.00
61908;BME280;47864;52.526;19.672;2023-02-12T03:00:07;102557.59;;;1.41;100.00
61908;BME280;47864;52.526;19.672;2023-02-12T03:02:22;102569.78;;;1.42;100.00
61908;BME280;47864;52.526;19.672;2023-02-12T03:04:35;102564.72;;;1.36;100.00
61908;BME280;47864;52.526;19.672;2023-02-12T03:06:43;102571.75;;;1.34;100.00
61908;BME280;47864;52.526;19.672;2023-02-12T03:08:52;102569.69;;;1.45;100.00
61908;BME280;47864;52.526;19.672;2023-02-12T03:11:00;102575.97;;;1.39;100.00
61908;BME280;47864;52.526;19.672;2023-02-12T03:13:13;102570.97;;;1.32;100.00
61908;BME280;47864;52.526;19.672;2023-02-12T03:15:23;102577.94;;;1.31;100.00
61908;BME280;47864;52.526;19.672;2023-02-12T03:17:33;102577.72;;;1.39;100.00
61908;BME280;47864;52.526;19.672;2023-02-12T03:19:41;102583.00;;;1.37;100.00
61908;BME280;47864;52.526;19.672;2023-02-12T03:21:51;102586.06;;;1.51;100.00
61908;BME280;47864;52.526;19.672;2023-02-12T03:24:03;102588.13;;;1.40;100.00
61908;BME280;47864;52.526;19.672;2023-02-12T03:26:37;102592.34;;;1.46;100.00
61908;BME280;47864;52.526;19.672;2023-02-12T03:28:39;102597.91;;;1.34;100.00
61908;BME280;47864;52.526;19.672;2023-02-12T03:30:46;102590.19;;;1.29;100.00
61908;BME280;47864;52.526;19.672;2023-02-12T03:33:14;102607.00;;;1.21;100.00
61908;BME280;47864;52.526;19.672;2023-02-12T03:35:31;102614.38;;;1.05;100.00
61908;BME280;47864;52.526;19.672;2023-02-12T03:37:39;102615.91;;;1.13;100.00
61908;BME280;47864;52.526;19.672;2023-02-12T03:42:08;102627.41;;;1.06;100.00
61908;BME280;47864;52.526;19.672;2023-02-12T03:44:22;102619.69;;;1.02;100.00
61908;BME280;47864;52.526;19.672;2023-02-12T03:46:30;102616.13;;;1.04;100.00
61908;BME280;47864;52.526;19.672;2023-02-12T03:48:40;102616.22;;;1.01;100.00
61908;BME280;47864;52.526;19.672;2023-02-12T03:50:50;102626.31;;;1.15;100.00
61908;BME280;47864;52.526;19.672;2023-02-12T03:52:53;102631.72;;;1.07;100.00
61908;BME280;47864;52.526;19.672;2023-02-12T03:54:54;102629.25;;;1.03;100.00
61908;BME280;47864;52.526;19.672;2023-02-12T03:57:09;102630.09;;;1.03;100.00
61908;BME280;47864;52.526;19.672;2023-02-12T03:59:12;102637.88;;;1.06;100.00
61908;BME280;47864;52.526;19.672;2023-02-12T04:01:14;102641.72;;;0.92;100.00
61908;BME280;47864;52.526;19.672;2023-02-12T04:03:16;102649.28;;;1.02;100.00
61908;BME280;47864;52.526;19.672;2023-02-12T04:05:25;102660.81;;;0.94;100.00
61908;BME280;47864;52.526;19.672;2023-02-12T04:07:27;102664.22;;;0.97;100.00
61908;BME280;47864;52.526;19.672;2023-02-12T04:09:30;102665.00;;;1.01;100.00
61908;BME280;47864;52.526;19.672;2023-02-12T04:18:38;102694.78;;;0.94;100.00
61908;BME280;47864;52.526;19.672;2023-02-12T04:22:57;102693.50;;;1.10;100.00
61908;BME280;47864;52.526;19.672;2023-02-12T04:25:34;102677.06;;;1.06;100.00
61908;BME280;47864;52.526;19.672;2023-02-12T04:27:56;102702.59;;;1.29;100.00
61908;BME280;47864;52.526;19.672;2023-02-12T04:30:06;102702.03;;;1.17;100.00
61908;BME280;47864;52.526;19.672;2023-02-12T04:34:40;102703.53;;;1.27;100.00
61908;BME280;47864;52.526;19.672;2023-02-12T04:36:54;102710.22;;;1.38;100.00
61908;BME280;47864;52.526;19.672;2023-02-12T04:39:00;102710.72;;;1.51;100.00
61908;BME280;47864;52.526;19.672;2023-02-12T04:41:05;102709.97;;;1.47;100.00
61908;BME280;47864;52.526;19.672;2023-02-12T04:43:07;102711.47;;;1.56;100.00
61908;BME280;47864;52.526;19.672;2023-02-12T04:45:15;102715.94;;;1.52;100.00
61908;BME280;47864;52.526;19.672;2023-02-12T04:47:19;102717.50;;;1.58;100.00
61908;BME280;47864;52.526;19.672;2023-02-12T04:49:21;102727.00;;;1.62;100.00
61908;BME280;47864;52.526;19.672;2023-02-12T04:51:23;102733.41;;;1.50;100.00
61908;BME280;47864;52.526;19.672;2023-02-12T04:53:25;102730.63;;;1.57;100.00
61908;BME280;47864;52.526;19.672;2023-02-12T04:55:26;102730.56;;;1.60;100.00
61908;BME280;47864;52.526;19.672;2023-02-12T04:57:28;102731.47;;;1.57;100.00
61908;BME280;47864;52.526;19.672;2023-02-12T04:59:29;102737.28;;;1.36;100.00
61908;BME280;47864;52.526;19.672;2023-02-12T05:01:35;102739.09;;;1.32;100.00
61908;BME280;47864;52.526;19.672;2023-02-12T05:03:37;102738.06;;;1.39;100.00
61908;BME280;47864;52.526;19.672;2023-02-12T05:05:38;102730.09;;;1.44;100.00
61908;BME280;47864;52.526;19.672;2023-02-12T05:07:40;102734.47;;;1.43;100.00
61908;BME280;47864;52.526;19.672;2023-02-12T05:09:41;102730.22;;;1.39;100.00
61908;BME280;47864;52.526;19.672;2023-02-12T05:11:43;102722.84;;;1.21;100.00
61908;BME280;47864;52.526;19.672;2023-02-12T05:13:48;102746.34;;;1.23;100.00
61908;BME280;47864;52.526;19.672;2023-02-12T05:15:50;102733.75;;;1.38;100.00
61908;BME280;47864;52.526;19.672;2023-02-12T05:17:51;102753.44;;;1.18;100.00
61908;BME280;47864;52.526;19.672;2023-02-12T05:19:52;102743.88;;;1.17;100.00
61908;BME280;47864;52.526;19.672;2023-02-12T05:21:54;102741.88;;;1.26;100.00
61908;BME280;47864;52.526;19.672;2023-02-12T05:23:55;102750.16;;;1.09;100.00
61908;BME280;47864;52.526;19.672;2023-02-12T05:25:58;102761.84;;;0.93;100.00
61908;BME280;47864;52.526;19.672;2023-02-12T05:28:00;102760.81;;;1.00;100.00
61908;BME280;47864;52.526;19.672;2023-02-12T05:30:02;102750.50;;;0.94;100.00
61908;BME280;47864;52.526;19.672;2023-02-12T05:32:04;102764.38;;;0.98;100.00
61908;BME280;47864;52.526;19.672;2023-02-12T05:34:09;102759.09;;;0.99;100.00
61908;BME280;47864;52.526;19.672;2023-02-12T05:36:14;102769.47;;;1.02;100.00
61908;BME280;47864;52.526;19.672;2023-02-12T05:38:15;102768.84;;;0.93;100.00
61908;BME280;47864;52.526;19.672;2023-02-12T05:40:17;102767.25;;;0.87;100.00
61908;BME280;47864;52.526;19.672;2023-02-12T05:42:19;102770.56;;;0.94;100.00
61908;BME280;47864;52.526;19.672;2023-02-12T05:44:20;102774.16;;;0.90;100.00
61908;BME280;47864;52.526;19.672;2023-02-12T05:46:22;102776.09;;;0.82;100.00
61908;BME280;47864;52.526;19.672;2023-02-12T05:48:23;102777.84;;;0.81;100.00
61908;BME280;47864;52.526;19.672;2023-02-12T05:50:25;102780.34;;;0.84;100.00
61908;BME280;47864;52.526;19.672;2023-02-12T05:52:27;102790.81;;;0.84;100.00
61908;BME280;47864;52.526;19.672;2023-02-12T05:54:28;102789.22;;;0.77;100.00
61908;BME280;47864;52.526;19.672;2023-02-12T05:56:34;102799.78;;;0.72;100.00
61908;BME280;47864;52.526;19.672;2023-02-12T05:58:36;102803.31;;;0.70;100.00
61908;BME280;47864;52.526;19.672;2023-02-12T06:00:38;102812.16;;;0.64;100.00
61908;BME280;47864;52.526;19.672;2023-02-12T06:02:40;102798.66;;;0.44;100.00
61908;BME280;47864;52.526;19.672;2023-02-12T06:04:41;102795.09;;;0.07;100.00
61908;BME280;47864;52.526;19.672;2023-02-12T06:06:43;102797.19;;;-0.14;100.00
61908;BME280;47864;52.526;19.672;2023-02-12T06:08:48;102801.22;;;0.04;100.00
61908;BME280;47864;52.526;19.672;2023-02-12T06:10:50;102804.53;;;0.12;100.00
61908;BME280;47864;52.526;19.672;2023-02-12T06:12:54;102811.34;;;0.19;100.00
61908;BME280;47864;52.526;19.672;2023-02-12T06:14:56;102808.69;;;0.22;100.00
61908;BME280;47864;52.526;19.672;2023-02-12T06:16:58;102809.56;;;0.21;100.00
61908;BME280;47864;52.526;19.672;2023-02-12T06:19:01;102810.44;;;0.22;100.00
61908;BME280;47864;52.526;19.672;2023-02-12T06:21:03;102820.00;;;0.21;100.00
61908;BME280;47864;52.526;19.672;2023-02-12T06:23:05;102819.25;;;0.16;100.00
61908;BME280;47864;52.526;19.672;2023-02-12T06:25:06;102816.19;;;-0.06;100.00
61908;BME280;47864;52.526;19.672;2023-02-12T06:27:08;102824.69;;;0.04;100.00
61908;BME280;47864;52.526;19.672;2023-02-12T06:29:10;102837.69;;;0.07;100.00
61908;BME280;47864;52.526;19.672;2023-02-12T06:31:23;102838.03;;;-0.11;100.00
61908;BME280;47864;52.526;19.672;2023-02-12T06:33:26;102844.09;;;-0.09;100.00
61908;BME280;47864;52.526;19.672;2023-02-12T06:35:27;102845.72;;;-0.04;100.00
61908;BME280;47864;52.526;19.672;2023-02-12T06:37:29;102849.16;;;-0.02;100.00
61908;BME280;47864;52.526;19.672;2023-02-12T06:39:30;102850.81;;;0.01;100.00
61908;BME280;47864;52.526;19.672;2023-02-12T06:41:32;102842.06;;;0.07;100.00
61908;BME280;47864;52.526;19.672;2023-02-12T06:43:34;102850.81;;;0.01;100.00
61908;BME280;47864;52.526;19.672;2023-02-12T06:45:35;102856.31;;;-0.14;100.00
61908;BME280;47864;52.526;19.672;2023-02-12T06:47:37;102854.75;;;-0.23;100.00
61908;BME280;47864;52.526;19.672;2023-02-12T06:49:38;102864.38;;;-0.26;100.00
61908;BME280;47864;52.526;19.672;2023-02-12T06:51:40;102864.81;;;-0.02;100.00
61908;BME280;47864;52.526;19.672;2023-02-12T06:53:43;102860.19;;;0.13;100.00
61908;BME280;47864;52.526;19.672;2023-02-12T06:55:45;102863.72;;;0.09;100.00
61908;BME280;47864;52.526;19.672;2023-02-12T06:57:46;102864.38;;;0.21;100.00
61908;BME280;47864;52.526;19.672;2023-02-12T06:59:48;102851.31;;;0.23;100.00
61908;BME280;47864;52.526;19.672;2023-02-12T07:01:50;102877.88;;;0.42;100.00
61908;BME280;47864;52.526;19.672;2023-02-12T07:04:00;102873.69;;;0.34;100.00
61908;BME280;47864;52.526;19.672;2023-02-12T07:06:02;102874.53;;;0.35;100.00
61908;BME280;47864;52.526;19.672;2023-02-12T07:08:04;102884.81;;;0.44;100.00
61908;BME280;47864;52.526;19.672;2023-02-12T07:10:05;102890.13;;;0.41;100.00
61908;BME280;47864;52.526;19.672;2023-02-12T07:12:07;102893.69;;;0.35;100.00
61908;BME280;47864;52.526;19.672;2023-02-12T07:14:15;102899.75;;;0.36;100.00
61908;BME280;47864;52.526;19.672;2023-02-12T07:16:17;102897.53;;;0.61;100.00
61908;BME280;47864;52.526;19.672;2023-02-12T07:18:19;102906.72;;;0.80;100.00
61908;BME280;47864;52.526;19.672;2023-02-12T07:20:20;102908.41;;;0.83;100.00
61908;BME280;47864;52.526;19.672;2023-02-12T07:22:22;102916.19;;;0.84;100.00
61908;BME280;47864;52.526;19.672;2023-02-12T07:24:23;102913.22;;;1.01;100.00
61908;BME280;47864;52.526;19.672;2023-02-12T07:26:25;102918.19;;;1.14;100.00
61908;BME280;47864;52.526;19.672;2023-02-12T07:28:27;102923.06;;;1.30;100.00
61908;BME280;47864;52.526;19.672;2023-02-12T07:30:28;102923.31;;;1.18;100.00
61908;BME280;47864;52.526;19.672;2023-02-12T07:32:31;102924.88;;;1.26;100.00
61908;BME280;47864;52.526;19.672;2023-02-12T07:34:33;102921.22;;;1.33;100.00
61908;BME280;47864;52.526;19.672;2023-02-12T07:36:34;102930.19;;;1.60;100.00
61908;BME280;47864;52.526;19.672;2023-02-12T07:38:37;102926.72;;;1.95;100.00
61908;BME280;47864;52.526;19.672;2023-02-12T07:40:38;102917.00;;;2.00;100.00
61908;BME280;47864;52.526;19.672;2023-02-12T07:42:40;102898.59;;;2.03;100.00
61908;BME280;47864;52.526;19.672;2023-02-12T07:44:42;102897.41;;;2.15;100.00
61908;BME280;47864;52.526;19.672;2023-02-12T07:46:47;102898.19;;;2.18;100.00
61908;BME280;47864;52.526;19.672;2023-02-12T07:48:50;102900.69;;;2.23;100.00
61908;BME280;47864;52.526;19.672;2023-02-12T07:50:51;102899.94;;;2.18;100.00
61908;BME280;47864;52.526;19.672;2023-02-12T07:52:53;102904.31;;;2.17;100.00
61908;BME280;47864;52.526;19.672;2023-02-12T07:54:54;102897.88;;;2.31;100.00
61908;BME280;47864;52.526;19.672;2023-02-12T07:56:56;102905.81;;;2.27;100.00
61908;BME280;47864;52.526;19.672;2023-02-12T07:59:00;102906.56;;;2.31;100.00
61908;BME280;47864;52.526;19.672;2023-02-12T08:03:16;102909.91;;;2.38;100.00
61908;BME280;47864;52.526;19.672;2023-02-12T08:05:18;102916.16;;;2.32;100.00
61908;BME280;47864;52.526;19.672;2023-02-12T08:07:19;102912.00;;;2.56;100.00
61908;BME280;47864;52.526;19.672;2023-02-12T08:09:26;102893.59;;;2.59;100.00
61908;BME280;47864;52.526;19.672;2023-02-12T08:11:28;102911.94;;;2.88;100.00
61908;BME280;47864;52.526;19.672;2023-02-12T08:13:30;102907.22;;;2.72;100.00
61908;BME280;47864;52.526;19.672;2023-02-12T08:15:32;102910.38;;;2.83;100.00
61908;BME280;47864;52.526;19.672;2023-02-12T08:17:33;102917.81;;;2.67;100.00
61908;BME280;47864;52.526;19.672;2023-02-12T08:19:35;102917.94;;;2.62;100.00
61908;BME280;47864;52.526;19.672;2023-02-12T08:21:37;102913.69;;;2.58;100.00
61908;BME280;47864;52.526;19.672;2023-02-12T08:23:39;102922.53;;;2.54;100.00
61908;BME280;47864;52.526;19.672;2023-02-12T08:25:41;102924.63;;;2.73;100.00
61908;BME280;47864;52.526;19.672;2023-02-12T08:27:42;102919.94;;;2.84;100.00
61908;BME280;47864;52.526;19.672;2023-02-12T08:29:44;102927.78;;;2.85;100.00
61908;BME280;47864;52.526;19.672;2023-02-12T08:31:47;102918.25;;;2.52;100.00
61908;BME280;47864;52.526;19.672;2023-02-12T08:33:51;102921.75;;;2.82;100.00
61908;BME280;47864;52.526;19.672;2023-02-12T08:36:08;102924.22;;;2.88;100.00
61908;BME280;47864;52.526;19.672;2023-02-12T08:38:10;102917.72;;;2.99;100.00
61908;BME280;47864;52.526;19.672;2023-02-12T08:40:11;102918.91;;;3.19;100.00
61908;BME280;47864;52.526;19.672;2023-02-12T08:42:13;102926.03;;;3.14;100.00
61908;BME280;47864;52.526;19.672;2023-02-12T08:44:15;102933.34;;;3.32;100.00
61908;BME280;47864;52.526;19.672;2023-02-12T08:46:23;102935.97;;;3.04;100.00
61908;BME280;47864;52.526;19.672;2023-02-12T08:48:25;102937.09;;;2.95;100.00
61908;BME280;47864;52.526;19.672;2023-02-12T08:50:26;102937.16;;;2.92;100.00
61908;BME280;47864;52.526;19.672;2023-02-12T08:52:28;102936.09;;;3.29;100.00
61908;BME280;47864;52.526;19.672;2023-02-12T08:54:29;102937.97;;;3.24;100.00
61908;BME280;47864;52.526;19.672;2023-02-12T08:56:32;102941.88;;;3.38;100.00
61908;BME280;47864;52.526;19.672;2023-02-12T08:58:35;102937.22;;;3.76;100.00
61908;BME280;47864;52.526;19.672;2023-02-12T09:00:36;102944.88;;;4.08;100.00
61908;BME280;47864;52.526;19.672;2023-02-12T09:02:40;102953.00;;;4.52;100.00
61908;BME280;47864;52.526;19.672;2023-02-12T09:04:42;102941.31;;;4.11;98.47
61908;BME280;47864;52.526;19.672;2023-02-12T09:06:44;102941.72;;;4.24;99.90
61908;BME280;47864;52.526;19.672;2023-02-12T09:08:47;102942.31;;;3.80;98.40
61908;BME280;47864;52.526;19.672;2023-02-12T09:10:48;102938.00;;;4.04;100.00
61908;BME280;47864;52.526;19.672;2023-02-12T09:12:50;102950.22;;;4.32;98.45
61908;BME280;47864;52.526;19.672;2023-02-12T09:14:52;102957.28;;;4.54;98.01
61908;BME280;47864;52.526;19.672;2023-02-12T09:16:53;102954.94;;;4.47;97.04
61908;BME280;47864;52.526;19.672;2023-02-12T09:18:55;102957.97;;;3.83;99.28
61908;BME280;47864;52.526;19.672;2023-02-12T09:21:06;102962.41;;;3.81;100.00
61908;BME280;47864;52.526;19.672;2023-02-12T09:23:10;102965.44;;;3.69;100.00
61908;BME280;47864;52.526;19.672;2023-02-12T09:25:12;102958.56;;;3.37;100.00
61908;BME280;47864;52.526;19.672;2023-02-12T09:27:13;102969.69;;;3.72;100.00
61908;BME280;47864;52.526;19.672;2023-02-12T09:29:15;102964.53;;;3.70;100.00
61908;BME280;47864;52.526;19.672;2023-02-12T09:31:19;102953.88;;;3.75;100.00
61908;BME280;47864;52.526;19.672;2023-02-12T09:33:21;102963.31;;;3.80;100.00
61908;BME280;47864;52.526;19.672;2023-02-12T09:35:23;102968.63;;;3.51;100.00
61908;BME280;47864;52.526;19.672;2023-02-12T09:37:25;102967.56;;;3.57;100.00
61908;BME280;47864;52.526;19.672;2023-02-12T09:39:26;102962.44;;;3.54;100.00
61908;BME280;47864;52.526;19.672;2023-02-12T09:47:32;102969.34;;;3.28;100.00
61908;BME280;47864;52.526;19.672;2023-02-12T09:49:27;102963.06;;;3.32;100.00
61908;BME280;47864;52.526;19.672;2023-02-12T09:51:32;102965.78;;;3.85;100.00
61908;BME280;47864;52.526;19.672;2023-02-12T09:53:38;102967.06;;;3.72;99.42
61908;BME280;47864;52.526;19.672;2023-02-12T09:55:40;102966.75;;;3.55;100.00
61908;BME280;47864;52.526;19.672;2023-02-12T09:57:42;102973.75;;;3.82;100.00
61908;BME280;47864;52.526;19.672;2023-02-12T09:59:50;102976.25;;;3.87;98.96
61908;BME280;47864;52.526;19.672;2023-02-12T10:01:52;102965.84;;;4.36;97.07
61908;BME280;47864;52.526;19.672;2023-02-12T10:03:55;102964.56;;;4.71;95.91
61908;BME280;47864;52.526;19.672;2023-02-12T10:06:03;102962.22;;;4.39;93.30
61908;BME280;47864;52.526;19.672;2023-02-12T10:10:52;102911.75;;;4.04;94.77
61908;BME280;47864;52.526;19.672;2023-02-12T10:13:07;102958.91;;;4.07;100.00
61908;BME280;47864;52.526;19.672;2023-02-12T10:15:58;102965.94;;;4.07;98.17
61908;BME280;47864;52.526;19.672;2023-02-12T10:18:10;102963.81;;;4.18;99.09
61908;BME280;47864;52.526;19.672;2023-02-12T10:20:26;102959.22;;;4.25;96.40
61908;BME280;47864;52.526;19.672;2023-02-12T10:25:12;102968.50;;;4.35;97.80
61908;BME280;47864;52.526;19.672;2023-02-12T10:27:23;102969.16;;;4.66;92.32
61908;BME280;47864;52.526;19.672;2023-02-12T10:29:30;102974.19;;;4.72;92.30
61908;BME280;47864;52.526;19.672;2023-02-12T10:31:37;102972.63;;;4.67;89.28
61908;BME280;47864;52.526;19.672;2023-02-12T10:33:47;102972.13;;;4.31;90.37
61908;BME280;47864;52.526;19.672;2023-02-12T10:35:54;102967.59;;;4.36;91.59
61908;BME280;47864;52.526;19.672;2023-02-12T10:38:03;102967.16;;;4.48;93.32
61908;BME280;47864;52.526;19.672;2023-02-12T10:40:24;102963.91;;;4.15;93.61
61908;BME280;47864;52.526;19.672;2023-02-12T10:42:40;102966.69;;;3.56;97.78
61908;BME280;47864;52.526;19.672;2023-02-12T10:44:43;102958.84;;;3.56;99.10
61908;BME280;47864;52.526;19.672;2023-02-12T10:46:44;102955.13;;;3.35;98.71
61908;BME280;47864;52.526;19.672;2023-02-12T10:48:48;102967.66;;;3.26;100.00
61908;BME280;47864;52.526;19.672;2023-02-12T10:53:23;102960.75;;;3.51;97.11
61908;BME280;47864;52.526;19.672;2023-02-12T10:55:31;102962.44;;;3.80;98.14
61908;BME280;47864;52.526;19.672;2023-02-12T10:57:37;102963.91;;;3.89;99.19
61908;BME280;47864;52.526;19.672;2023-02-12T10:59:44;102959.72;;;3.83;100.00
61908;BME280;47864;52.526;19.672;2023-02-12T11:01:46;102962.97;;;3.91;100.00
61908;BME280;47864;52.526;19.672;2023-02-12T11:03:48;102957.97;;;3.83;100.00
61908;BME280;47864;52.526;19.672;2023-02-12T11:05:49;102956.81;;;3.92;100.00
61908;BME280;47864;52.526;19.672;2023-02-12T11:07:51;102953.69;;;3.53;100.00
61908;BME280;47864;52.526;19.672;2023-02-12T11:09:54;102951.25;;;3.19;100.00
61908;BME280;47864;52.526;19.672;2023-02-12T11:11:57;102953.16;;;3.42;100.00
61908;BME280;47864;52.526;19.672;2023-02-12T11:14:02;102951.19;;;3.49;100.00
61908;BME280;47864;52.526;19.672;2023-02-12T11:16:04;102943.50;;;3.44;100.00
61908;BME280;47864;52.526;19.672;2023-02-12T11:18:07;102938.31;;;3.41;100.00
61908;BME280;47864;52.526;19.672;2023-02-12T11:20:36;102932.72;;;3.53;100.00
61908;BME280;47864;52.526;19.672;2023-02-12T11:22:48;102945.00;;;3.51;100.00
61908;BME280;47864;52.526;19.672;2023-02-12T11:24:59;102952.38;;;3.38;100.00
61908;BME280;47864;52.526;19.672;2023-02-12T11:27:22;102944.66;;;3.34;100.00
61908;BME280;47864;52.526;19.672;2023-02-12T11:29:23;102950.78;;;3.34;100.00
61908;BME280;47864;52.526;19.672;2023-02-12T11:31:26;102956.03;;;3.34;100.00
61908;BME280;47864;52.526;19.672;2023-02-12T11:33:33;102949.53;;;3.46;100.00